sensor_id;sensor_type;location;lat;lon;timestamp;P1;durP1;ratioP1;P2;durP2;ratioP2
19965;SDS011;10144;50.874;4.762;2023-04-03T00:07:15;18.60;;;6.70;;
19965;SDS011;10144;50.874;4.762;2023-04-03T00:09:41;16.80;;;6.30;;
19965;SDS011;10144;50.874;4.762;2023-04-03T00:12:12;12.60;;;6.37;;
19965;SDS011;10144;50.874;4.762;2023-04-03T00:14:44;13.87;;;6.57;;
19965;SDS011;10144;50.874;4.762;2023-04-03T00:17:12;15.10;;;6.67;;
19965;SDS011;10144;50.874;4.762;2023-04-03T00:19:37;16.93;;;7.60;;
19965;SDS011;10144;50.874;4.762;2023-04-03T00:22:09;15.83;;;7.40;;
19965;SDS011;10144;50.874;4.762;2023-04-03T00:27:10;11.80;;;6.53;;
19965;SDS011;10144;50.874;4.762;2023-04-03T00:34:35;13.27;;;6.40;;
19965;SDS011;10144;50.874;4.762;2023-04-03T00:37:06;17.13;;;6.50;;
19965;SDS011;10144;50.874;4.762;2023-04-03T00:39:34;18.77;;;6.77;;
19965;SDS011;10144;50.874;4.762;2023-04-03T00:42:00;16.90;;;6.03;;
19965;SDS011;10144;50.874;4.762;2023-04-03T00:47:12;16.93;;;6.70;;
19965;SDS011;10144;50.874;4.762;2023-04-03T00:49:43;14.53;;;7.13;;
19965;SDS011;10144;50.874;4.762;2023-04-03T00:54:45;16.57;;;6.67;;
19965;SDS011;10144;50.874;4.762;2023-04-03T00:57:12;16.90;;;7.70;;
19965;SDS011;10144;50.874;4.762;2023-04-03T00:59:44;19.00;;;7.73;;
19965;SDS011;10144;50.874;4.762;2023-04-03T01:02:15;14.43;;;7.47;;
19965;SDS011;10144;50.874;4.762;2023-04-03T01:04:41;18.43;;;8.00;;
19965;SDS011;10144;50.874;4.762;2023-04-03T01:07:28;15.30;;;7.00;;
19965;SDS011;10144;50.874;4.762;2023-04-03T01:09:56;17.57;;;7.80;;
19965;SDS011;10144;50.874;4.762;2023-04-03T01:23:22;16.93;;;7.40;;
19965;SDS011;10144;50.874;4.762;2023-04-03T01:25:57;18.97;;;8.23;;
19965;SDS011;10144;50.874;4.762;2023-04-03T01:28:30;17.53;;;8.10;;
19965;SDS011;10144;50.874;4.762;2023-04-03T01:33:48;19.13;;;7.47;;
19965;SDS011;10144;50.874;4.762;2023-04-03T01:38:59;20.60;;;9.17;;
19965;SDS011;10144;50.874;4.762;2023-04-03T01:43:55;22.90;;;9.13;;
19965;SDS011;10144;50.874;4.762;2023-04-03T01:48:50;23.20;;;9.00;;
19965;SDS011;10144;50.874;4.762;2023-04-03T01:51:19;17.10;;;6.73;;
19965;SDS011;10144;50.874;4.762;2023-04-03T01:53:48;27.10;;;9.27;;
19965;SDS011;10144;50.874;4.762;2023-04-03T01:56:14;14.10;;;6.53;;
19965;SDS011;10144;50.874;4.762;2023-04-03T01:58:46;17.00;;;7.30;;
19965;SDS011;10144;50.874;4.762;2023-04-03T02:01:15;21.77;;;8.47;;
19965;SDS011;10144;50.874;4.762;2023-04-03T02:03:48;16.33;;;7.67;;
19965;SDS011;10144;50.874;4.762;2023-04-03T02:06:18;28.53;;;10.67;;
19965;SDS011;10144;50.874;4.762;2023-04-03T02:08:44;15.53;;;7.43;;
19965;SDS011;10144;50.874;4.762;2023-04-03T02:11:11;26.90;;;10.60;;
19965;SDS011;10144;50.874;4.762;2023-04-03T02:13:40;19.33;;;8.50;;
19965;SDS011;10144;50.874;4.762;2023-04-03T02:16:06;19.57;;;8.10;;
19965;SDS011;10144;50.874;4.762;2023-04-03T02:18:41;18.87;;;8.60;;
19965;SDS011;10144;50.874;4.762;2023-04-03T02:21:10;28.97;;;12.80;;
19965;SDS011;10144;50.874;4.762;2023-04-03T02:23:42;22.20;;;10.20;;
19965;SDS011;10144;50.874;4.762;2023-04-03T02:26:10;22.97;;;9.53;;
19965;SDS011;10144;50.874;4.762;2023-04-03T02:28:37;17.67;;;8.33;;
19965;SDS011;10144;50.874;4.762;2023-04-03T02:31:09;22.27;;;9.93;;
19965;SDS011;10144;50.874;4.762;2023-04-03T02:33:36;19.07;;;9.07;;
19965;SDS011;10144;50.874;4.762;2023-04-03T02:36:06;16.57;;;8.17;;
19965;SDS011;10144;50.874;4.762;2023-04-03T02:38:37;24.63;;;9.37;;
19965;SDS011;10144;50.874;4.762;2023-04-03T02:41:10;22.27;;;8.90;;
19965;SDS011;10144;50.874;4.762;2023-04-03T02:43:39;20.43;;;8.47;;
19965;SDS011;10144;50.874;4.762;2023-04-03T02:46:08;17.40;;;8.13;;
19965;SDS011;10144;50.874;4.762;2023-04-03T02:48:36;20.50;;;8.93;;
19965;SDS011;10144;50.874;4.762;2023-04-03T02:51:05;17.73;;;9.03;;
19965;SDS011;10144;50.874;4.762;2023-04-03T02:53:32;25.27;;;11.07;;
19965;SDS011;10144;50.874;4.762;2023-04-03T02:56:01;25.17;;;11.53;;
19965;SDS011;10144;50.874;4.762;2023-04-03T02:58:29;31.80;;;12.00;;
19965;SDS011;10144;50.874;4.762;2023-04-03T03:00:57;34.43;;;12.93;;
19965;SDS011;10144;50.874;4.762;2023-04-03T03:03:23;39.20;;;13.73;;
19965;SDS011;10144;50.874;4.762;2023-04-03T03:05:49;23.70;;;9.67;;
19965;SDS011;10144;50.874;4.762;2023-04-03T03:08:18;17.63;;;9.53;;
19965;SDS011;10144;50.874;4.762;2023-04-03T03:10:55;18.03;;;8.87;;
19965;SDS011;10144;50.874;4.762;2023-04-03T03:15:55;16.43;;;8.10;;
19965;SDS011;10144;50.874;4.762;2023-04-03T03:18:21;16.27;;;8.40;;
19965;SDS011;10144;50.874;4.762;2023-04-03T03:20:54;21.37;;;8.63;;
19965;SDS011;10144;50.874;4.762;2023-04-03T03:23:23;18.43;;;7.97;;
19965;SDS011;10144;50.874;4.762;2023-04-03T03:25:57;20.07;;;8.80;;
19965;SDS011;10144;50.874;4.762;2023-04-03T03:28:31;19.73;;;8.77;;
19965;SDS011;10144;50.874;4.762;2023-04-03T03:38:33;17.60;;;8.97;;
19965;SDS011;10144;50.874;4.762;2023-04-03T03:41:05;21.93;;;9.20;;
19965;SDS011;10144;50.874;4.762;2023-04-03T03:46:03;18.57;;;9.53;;
19965;SDS011;10144;50.874;4.762;2023-04-03T03:48:29;19.73;;;9.20;;
19965;SDS011;10144;50.874;4.762;2023-04-03T03:53:28;25.83;;;10.33;;
19965;SDS011;10144;50.874;4.762;2023-04-03T03:55:57;19.07;;;9.20;;
19965;SDS011;10144;50.874;4.762;2023-04-03T03:58:25;19.93;;;9.97;;
19965;SDS011;10144;50.874;4.762;2023-04-03T04:00:51;23.43;;;10.03;;
19965;SDS011;10144;50.874;4.762;2023-04-03T04:03:17;22.30;;;10.33;;
19965;SDS011;10144;50.874;4.762;2023-04-03T04:05:45;24.17;;;9.87;;
19965;SDS011;10144;50.874;4.762;2023-04-03T04:08:11;22.00;;;10.20;;
19965;SDS011;10144;50.874;4.762;2023-04-03T04:10:37;22.00;;;10.13;;
19965;SDS011;10144;50.874;4.762;2023-04-03T04:13:05;23.60;;;10.53;;
19965;SDS011;10144;50.874;4.762;2023-04-03T04:15:33;24.77;;;10.37;;
19965;SDS011;10144;50.874;4.762;2023-04-03T04:18:04;23.33;;;10.40;;
19965;SDS011;10144;50.874;4.762;2023-04-03T04:20:33;23.43;;;10.07;;
19965;SDS011;10144;50.874;4.762;2023-04-03T04:23:01;22.77;;;10.83;;
19965;SDS011;10144;50.874;4.762;2023-04-03T04:25:27;23.27;;;10.77;;
19965;SDS011;10144;50.874;4.762;2023-04-03T04:27:53;23.43;;;11.03;;
19965;SDS011;10144;50.874;4.762;2023-04-03T04:30:20;25.37;;;10.20;;
19965;SDS011;10144;50.874;4.762;2023-04-03T04:32:45;23.73;;;10.63;;
19965;SDS011;10144;50.874;4.762;2023-04-03T04:35:14;21.17;;;10.30;;
19965;SDS011;10144;50.874;4.762;2023-04-03T04:37:39;24.27;;;10.77;;
19965;SDS011;10144;50.874;4.762;2023-04-03T04:40:05;23.13;;;9.83;;
19965;SDS011;10144;50.874;4.762;2023-04-03T04:42:37;20.67;;;9.93;;
19965;SDS011;10144;50.874;4.762;2023-04-03T04:45:05;27.40;;;11.40;;
19965;SDS011;10144;50.874;4.762;2023-04-03T04:47:34;25.47;;;11.10;;
19965;SDS011;10144;50.874;4.762;2023-04-03T04:50:01;22.80;;;10.63;;
19965;SDS011;10144;50.874;4.762;2023-04-03T04:52:33;25.57;;;11.13;;
19965;SDS011;10144;50.874;4.762;2023-04-03T04:55:03;25.23;;;11.77;;
19965;SDS011;10144;50.874;4.762;2023-04-03T04:57:32;26.23;;;11.70;;
19965;SDS011;10144;50.874;4.762;2023-04-03T04:59:58;26.77;;;11.87;;
19965;SDS011;10144;50.874;4.762;2023-04-03T05:02:27;26.73;;;12.30;;
19965;SDS011;10144;50.874;4.762;2023-04-03T05:04:53;28.53;;;13.30;;
19965;SDS011;10144;50.874;4.762;2023-04-03T05:07:21;29.73;;;13.37;;
19965;SDS011;10144;50.874;4.762;2023-04-03T05:09:48;35.37;;;14.50;;
19965;SDS011;10144;50.874;4.762;2023-04-03T05:12:15;38.57;;;18.87;;
19965;SDS011;10144;50.874;4.762;2023-04-03T05:14:47;33.60;;;15.80;;
19965;SDS011;10144;50.874;4.762;2023-04-03T05:17:14;28.77;;;14.70;;
19965;SDS011;10144;50.874;4.762;2023-04-03T05:19:40;38.20;;;14.87;;
19965;SDS011;10144;50.874;4.762;2023-04-03T05:22:06;29.50;;;13.07;;
19965;SDS011;10144;50.874;4.762;2023-04-03T05:24:32;32.67;;;14.03;;
19965;SDS011;10144;50.874;4.762;2023-04-03T05:26:59;30.50;;;15.40;;
19965;SDS011;10144;50.874;4.762;2023-04-03T05:29:26;43.57;;;17.53;;
19965;SDS011;10144;50.874;4.762;2023-04-03T05:31:57;43.73;;;17.30;;
19965;SDS011;10144;50.874;4.762;2023-04-03T05:34:25;35.80;;;14.20;;
19965;SDS011;10144;50.874;4.762;2023-04-03T05:36:52;31.50;;;15.03;;
19965;SDS011;10144;50.874;4.762;2023-04-03T05:39:32;39.53;;;14.97;;
19965;SDS011;10144;50.874;4.762;2023-04-03T05:41:59;48.60;;;17.30;;
19965;SDS011;10144;50.874;4.762;2023-04-03T05:44:25;47.80;;;17.70;;
19965;SDS011;10144;50.874;4.762;2023-04-03T05:46:53;44.87;;;17.23;;
19965;SDS011;10144;50.874;4.762;2023-04-03T05:49:20;60.93;;;19.80;;
19965;SDS011;10144;50.874;4.762;2023-04-03T05:51:45;56.60;;;18.30;;
19965;SDS011;10144;50.874;4.762;2023-04-03T05:54:32;47.20;;;17.30;;
19965;SDS011;10144;50.874;4.762;2023-04-03T05:56:58;40.37;;;15.47;;
19965;SDS011;10144;50.874;4.762;2023-04-03T05:59:25;41.07;;;16.30;;
19965;SDS011;10144;50.874;4.762;2023-04-03T06:01:52;33.77;;;14.67;;
19965;SDS011;10144;50.874;4.762;2023-04-03T06:04:19;56.93;;;17.67;;
19965;SDS011;10144;50.874;4.762;2023-04-03T06:06:49;32.13;;;13.63;;
19965;SDS011;10144;50.874;4.762;2023-04-03T06:09:18;30.50;;;13.30;;
19965;SDS011;10144;50.874;4.762;2023-04-03T06:11:52;26.50;;;13.37;;
19965;SDS011;10144;50.874;4.762;2023-04-03T06:14:18;23.67;;;11.43;;
19965;SDS011;10144;50.874;4.762;2023-04-03T06:16:44;17.73;;;8.97;;
19965;SDS011;10144;50.874;4.762;2023-04-03T06:19:10;17.03;;;8.07;;
19965;SDS011;10144;50.874;4.762;2023-04-03T06:21:36;18.67;;;8.33;;
19965;SDS011;10144;50.874;4.762;2023-04-03T06:24:03;14.43;;;7.77;;
19965;SDS011;10144;50.874;4.762;2023-04-03T06:26:29;12.73;;;7.27;;
19965;SDS011;10144;50.874;4.762;2023-04-03T06:28:55;19.50;;;7.45;;
19965;SDS011;10144;50.874;4.762;2023-04-03T06:31:21;13.48;;;7.40;;
19965;SDS011;10144;50.874;4.762;2023-04-03T06:33:47;12.93;;;7.07;;
19965;SDS011;10144;50.874;4.762;2023-04-03T06:36:12;11.50;;;7.10;;
19965;SDS011;10144;50.874;4.762;2023-04-03T06:38:38;13.55;;;7.22;;
19965;SDS011;10144;50.874;4.762;2023-04-03T06:41:04;12.82;;;7.05;;
19965;SDS011;10144;50.874;4.762;2023-04-03T06:43:29;14.00;;;7.25;;
19965;SDS011;10144;50.874;4.762;2023-04-03T06:45:58;12.63;;;6.85;;
19965;SDS011;10144;50.874;4.762;2023-04-03T06:48:23;11.90;;;6.80;;
19965;SDS011;10144;50.874;4.762;2023-04-03T06:50:49;12.05;;;6.85;;
19965;SDS011;10144;50.874;4.762;2023-04-03T06:53:15;15.10;;;8.80;;
19965;SDS011;10144;50.874;4.762;2023-04-03T06:55:40;15.90;;;7.35;;
19965;SDS011;10144;50.874;4.762;2023-04-03T06:58:06;70.47;;;25.15;;
19965;SDS011;10144;50.874;4.762;2023-04-03T07:00:32;77.05;;;29.38;;
19965;SDS011;10144;50.874;4.762;2023-04-03T07:02:58;56.55;;;23.20;;
19965;SDS011;10144;50.874;4.762;2023-04-03T07:05:24;74.50;;;27.33;;
19965;SDS011;10144;50.874;4.762;2023-04-03T07:07:53;36.33;;;14.82;;
19965;SDS011;10144;50.874;4.762;2023-04-03T07:10:18;12.55;;;6.18;;
19965;SDS011;10144;50.874;4.762;2023-04-03T07:12:44;12.07;;;6.70;;
19965;SDS011;10144;50.874;4.762;2023-04-03T07:15:10;23.52;;;10.95;;
19965;SDS011;10144;50.874;4.762;2023-04-03T07:17:37;84.72;;;25.23;;
19965;SDS011;10144;50.874;4.762;2023-04-03T07:20:03;62.95;;;21.02;;
19965;SDS011;10144;50.874;4.762;2023-04-03T07:22:29;19.75;;;9.15;;
19965;SDS011;10144;50.874;4.762;2023-04-03T07:24:55;15.95;;;7.50;;
19965;SDS011;10144;50.874;4.762;2023-04-03T07:27:21;33.03;;;13.60;;
19965;SDS011;10144;50.874;4.762;2023-04-03T07:29:46;33.38;;;13.65;;
19965;SDS011;10144;50.874;4.762;2023-04-03T07:32:13;14.95;;;6.20;;
19965;SDS011;10144;50.874;4.762;2023-04-03T07:34:40;10.93;;;5.72;;
19965;SDS011;10144;50.874;4.762;2023-04-03T07:37:05;17.40;;;8.13;;
19965;SDS011;10144;50.874;4.762;2023-04-03T07:39:31;20.05;;;10.10;;
19965;SDS011;10144;50.874;4.762;2023-04-03T07:41:58;19.88;;;7.70;;
19965;SDS011;10144;50.874;4.762;2023-04-03T07:44:24;15.65;;;7.50;;
19965;SDS011;10144;50.874;4.762;2023-04-03T07:46:50;13.20;;;6.75;;
19965;SDS011;10144;50.874;4.762;2023-04-03T07:49:16;17.60;;;7.93;;
19965;SDS011;10144;50.874;4.762;2023-04-03T07:51:43;16.45;;;7.20;;
19965;SDS011;10144;50.874;4.762;2023-04-03T07:54:09;9.20;;;5.25;;
19965;SDS011;10144;50.874;4.762;2023-04-03T07:56:35;12.57;;;5.57;;
19965;SDS011;10144;50.874;4.762;2023-04-03T07:59:01;11.40;;;6.22;;
19965;SDS011;10144;50.874;4.762;2023-04-03T08:01:27;12.63;;;5.22;;
19965;SDS011;10144;50.874;4.762;2023-04-03T08:03:53;10.82;;;4.80;;
19965;SDS011;10144;50.874;4.762;2023-04-03T08:06:18;9.88;;;5.50;;
19965;SDS011;10144;50.874;4.762;2023-04-03T08:08:44;11.75;;;5.63;;
19965;SDS011;10144;50.874;4.762;2023-04-03T08:11:13;12.70;;;5.55;;
19965;SDS011;10144;50.874;4.762;2023-04-03T08:13:39;10.98;;;4.70;;
19965;SDS011;10144;50.874;4.762;2023-04-03T08:16:13;10.95;;;4.80;;
19965;SDS011;10144;50.874;4.762;2023-04-03T08:18:46;14.77;;;5.32;;
19965;SDS011;10144;50.874;4.762;2023-04-03T08:21:11;32.00;;;12.60;;
19965;SDS011;10144;50.874;4.762;2023-04-03T08:23:38;22.10;;;8.65;;
19965;SDS011;10144;50.874;4.762;2023-04-03T08:26:13;16.13;;;5.95;;
19965;SDS011;10144;50.874;4.762;2023-04-03T08:31:11;26.50;;;10.02;;
19965;SDS011;10144;50.874;4.762;2023-04-03T08:33:38;21.08;;;8.52;;
19965;SDS011;10144;50.874;4.762;2023-04-03T08:36:05;23.08;;;8.70;;
19965;SDS011;10144;50.874;4.762;2023-04-03T08:38:32;8.23;;;3.60;;
19965;SDS011;10144;50.874;4.762;2023-04-03T08:41:04;14.32;;;4.85;;
19965;SDS011;10144;50.874;4.762;2023-04-03T08:46:51;42.10;;;16.48;;
19965;SDS011;10144;50.874;4.762;2023-04-03T08:49:37;26.40;;;11.38;;
19965;SDS011;10144;50.874;4.762;2023-04-03T08:52:52;6.85;;;3.10;;
19965;SDS011;10144;50.874;4.762;2023-04-03T08:55:26;25.85;;;12.05;;
19965;SDS011;10144;50.874;4.762;2023-04-03T08:58:00;10.45;;;3.10;;
19965;SDS011;10144;50.874;4.762;2023-04-03T09:00:41;7.85;;;2.65;;
19965;SDS011;10144;50.874;4.762;2023-04-03T09:03:15;7.65;;;3.30;;
19965;SDS011;10144;50.874;4.762;2023-04-03T09:08:50;6.28;;;2.85;;
19965;SDS011;10144;50.874;4.762;2023-04-03T09:22:41;9.75;;;3.22;;
19965;SDS011;10144;50.874;4.762;2023-04-03T09:25:20;6.38;;;2.97;;
19965;SDS011;10144;50.874;4.762;2023-04-03T09:27:48;9.02;;;3.42;;
19965;SDS011;10144;50.874;4.762;2023-04-03T09:30:21;9.10;;;3.70;;
19965;SDS011;10144;50.874;4.762;2023-04-03T09:32:50;6.20;;;2.88;;
19965;SDS011;10144;50.874;4.762;2023-04-03T09:35:27;7.63;;;3.00;;
19965;SDS011;10144;50.874;4.762;2023-04-03T09:40:37;7.78;;;3.17;;
19965;SDS011;10144;50.874;4.762;2023-04-03T09:45:42;8.75;;;3.00;;
19965;SDS011;10144;50.874;4.762;2023-04-03T09:48:15;7.80;;;2.92;;
19965;SDS011;10144;50.874;4.762;2023-04-03T09:50:56;9.25;;;2.92;;
19965;SDS011;10144;50.874;4.762;2023-04-03T09:55:57;8.00;;;3.08;;
19965;SDS011;10144;50.874;4.762;2023-04-03T09:58:25;5.43;;;2.58;;
19965;SDS011;10144;50.874;4.762;2023-04-03T10:06:54;5.55;;;2.97;;
19965;SDS011;10144;50.874;4.762;2023-04-03T10:09:30;9.43;;;3.45;;
19965;SDS011;10144;50.874;4.762;2023-04-03T10:14:31;13.73;;;3.25;;
19965;SDS011;10144;50.874;4.762;2023-04-03T10:19:53;8.30;;;2.63;;
19965;SDS011;10144;50.874;4.762;2023-04-03T10:33:55;5.65;;;2.72;;
19965;SDS011;10144;50.874;4.762;2023-04-03T10:47:23;4.65;;;1.88;;
19965;SDS011;10144;50.874;4.762;2023-04-03T10:52:48;4.25;;;1.73;;
19965;SDS011;10144;50.874;4.762;2023-04-03T10:58:39;4.18;;;1.75;;
19965;SDS011;10144;50.874;4.762;2023-04-03T11:01:11;8.75;;;2.60;;
19965;SDS011;10144;50.874;4.762;2023-04-03T11:03:45;35.60;;;11.20;;
19965;SDS011;10144;50.874;4.762;2023-04-03T11:06:20;5.43;;;2.75;;
19965;SDS011;10144;50.874;4.762;2023-04-03T11:11:56;6.90;;;2.92;;
19965;SDS011;10144;50.874;4.762;2023-04-03T11:14:35;4.40;;;1.98;;
19965;SDS011;10144;50.874;4.762;2023-04-03T11:27:44;16.08;;;5.47;;
19965;SDS011;10144;50.874;4.762;2023-04-03T11:30:42;10.60;;;3.78;;
19965;SDS011;10144;50.874;4.762;2023-04-03T11:33:20;9.05;;;2.72;;
19965;SDS011;10144;50.874;4.762;2023-04-03T11:35:58;5.78;;;1.92;;
19965;SDS011;10144;50.874;4.762;2023-04-03T11:38:48;8.90;;;2.55;;
19965;SDS011;10144;50.874;4.762;2023-04-03T11:41:25;14.35;;;4.57;;
19965;SDS011;10144;50.874;4.762;2023-04-03T11:43:59;13.57;;;4.85;;
19965;SDS011;10144;50.874;4.762;2023-04-03T12:13:41;3.13;;;1.48;;
19965;SDS011;10144;50.874;4.762;2023-04-03T12:21:21;4.32;;;1.30;;
19965;SDS011;10144;50.874;4.762;2023-04-03T12:24:04;6.60;;;1.50;;
19965;SDS011;10144;50.874;4.762;2023-04-03T12:34:46;14.63;;;3.35;;
19965;SDS011;10144;50.874;4.762;2023-04-03T12:38:10;3.38;;;1.23;;
19965;SDS011;10144;50.874;4.762;2023-04-03T12:45:52;4.32;;;1.23;;
19965;SDS011;10144;50.874;4.762;2023-04-03T12:48:30;5.73;;;2.23;;
19965;SDS011;10144;50.874;4.762;2023-04-03T12:50:59;5.80;;;1.50;;
19965;SDS011;10144;50.874;4.762;2023-04-03T12:53:29;8.90;;;2.97;;
19965;SDS011;10144;50.874;4.762;2023-04-03T12:58:46;5.78;;;2.60;;
19965;SDS011;10144;50.874;4.762;2023-04-03T13:01:13;3.00;;;1.50;;
19965;SDS011;10144;50.874;4.762;2023-04-03T13:03:45;6.68;;;2.33;;
19965;SDS011;10144;50.874;4.762;2023-04-03T13:06:15;6.93;;;2.10;;
19965;SDS011;10144;50.874;4.762;2023-04-03T13:08:48;6.40;;;1.88;;
19965;SDS011;10144;50.874;4.762;2023-04-03T13:11:15;7.15;;;2.00;;
19965;SDS011;10144;50.874;4.762;2023-04-03T13:13:53;7.03;;;1.50;;
19965;SDS011;10144;50.874;4.762;2023-04-03T13:16:30;4.57;;;1.73;;
19965;SDS011;10144;50.874;4.762;2023-04-03T13:18:56;6.00;;;2.20;;
19965;SDS011;10144;50.874;4.762;2023-04-03T13:21:29;5.40;;;1.73;;
19965;SDS011;10144;50.874;4.762;2023-04-03T13:23:58;4.47;;;1.80;;
19965;SDS011;10144;50.874;4.762;2023-04-03T13:26:29;4.10;;;1.50;;
19965;SDS011;10144;50.874;4.762;2023-04-03T13:28:59;4.90;;;1.70;;
19965;SDS011;10144;50.874;4.762;2023-04-03T13:31:32;4.77;;;1.30;;
19965;SDS011;10144;50.874;4.762;2023-04-03T13:34:06;4.50;;;1.57;;
19965;SDS011;10144;50.874;4.762;2023-04-03T13:41:47;4.03;;;1.27;;
19965;SDS011;10144;50.874;4.762;2023-04-03T13:49:26;3.30;;;1.30;;
19965;SDS011;10144;50.874;4.762;2023-04-03T13:51:58;4.40;;;1.40;;
19965;SDS011;10144;50.874;4.762;2023-04-03T13:54:25;5.17;;;1.70;;
19965;SDS011;10144;50.874;4.762;2023-04-03T13:57:00;4.33;;;1.50;;
19965;SDS011;10144;50.874;4.762;2023-04-03T13:59:34;3.17;;;1.40;;
19965;SDS011;10144;50.874;4.762;2023-04-03T14:04:44;2.47;;;1.30;;
19965;SDS011;10144;50.874;4.762;2023-04-03T14:07:22;5.07;;;1.40;;
19965;SDS011;10144;50.874;4.762;2023-04-03T14:09:49;3.87;;;1.50;;
19965;SDS011;10144;50.874;4.762;2023-04-03T14:12:16;3.03;;;1.50;;
19965;SDS011;10144;50.874;4.762;2023-04-03T14:14:46;4.70;;;1.80;;
19965;SDS011;10144;50.874;4.762;2023-04-03T14:17:16;5.87;;;1.80;;
19965;SDS011;10144;50.874;4.762;2023-04-03T14:19:44;5.03;;;1.63;;
19965;SDS011;10144;50.874;4.762;2023-04-03T14:22:19;3.40;;;1.43;;
19965;SDS011;10144;50.874;4.762;2023-04-03T14:24:50;2.73;;;1.60;;
19965;SDS011;10144;50.874;4.762;2023-04-03T14:29:50;20.80;;;6.23;;
19965;SDS011;10144;50.874;4.762;2023-04-03T14:32:18;25.07;;;8.23;;
19965;SDS011;10144;50.874;4.762;2023-04-03T14:34:45;11.43;;;3.97;;
19965;SDS011;10144;50.874;4.762;2023-04-03T14:37:17;7.90;;;2.50;;
19965;SDS011;10144;50.874;4.762;2023-04-03T14:39:45;9.07;;;3.40;;
19965;SDS011;10144;50.874;4.762;2023-04-03T14:42:11;12.10;;;4.40;;
19965;SDS011;10144;50.874;4.762;2023-04-03T14:44:39;7.27;;;3.17;;
19965;SDS011;10144;50.874;4.762;2023-04-03T14:47:05;10.53;;;4.60;;
19965;SDS011;10144;50.874;4.762;2023-04-03T14:49:34;7.93;;;3.30;;
19965;SDS011;10144;50.874;4.762;2023-04-03T14:51:59;4.67;;;2.17;;
19965;SDS011;10144;50.874;4.762;2023-04-03T14:54:25;5.10;;;1.70;;
19965;SDS011;10144;50.874;4.762;2023-04-03T14:56:52;6.30;;;2.10;;
19965;SDS011;10144;50.874;4.762;2023-04-03T14:59:19;5.43;;;2.23;;
19965;SDS011;10144;50.874;4.762;2023-04-03T15:01:46;12.10;;;3.60;;
19965;SDS011;10144;50.874;4.762;2023-04-03T15:04:13;5.83;;;2.00;;
19965;SDS011;10144;50.874;4.762;2023-04-03T15:06:40;4.27;;;1.87;;
19965;SDS011;10144;50.874;4.762;2023-04-03T15:09:10;4.97;;;1.70;;
19965;SDS011;10144;50.874;4.762;2023-04-03T15:11:44;5.00;;;2.10;;
19965;SDS011;10144;50.874;4.762;2023-04-03T15:14:10;5.17;;;2.20;;
19965;SDS011;10144;50.874;4.762;2023-04-03T15:16:35;7.80;;;2.27;;
19965;SDS011;10144;50.874;4.762;2023-04-03T15:19:01;6.50;;;2.07;;
19965;SDS011;10144;50.874;4.762;2023-04-03T15:21:27;4.60;;;2.03;;
19965;SDS011;10144;50.874;4.762;2023-04-03T15:23:53;7.23;;;1.93;;
19965;SDS011;10144;50.874;4.762;2023-04-03T15:26:19;4.97;;;2.03;;
19965;SDS011;10144;50.874;4.762;2023-04-03T15:28:45;4.73;;;2.23;;
19965;SDS011;10144;50.874;4.762;2023-04-03T15:31:11;5.33;;;2.40;;
19965;SDS011;10144;50.874;4.762;2023-04-03T15:33:37;8.70;;;2.30;;
19965;SDS011;10144;50.874;4.762;2023-04-03T15:36:03;5.23;;;2.00;;
19965;SDS011;10144;50.874;4.762;2023-04-03T15:38:29;6.90;;;2.20;;
19965;SDS011;10144;50.874;4.762;2023-04-03T15:40:55;9.87;;;2.40;;
19965;SDS011;10144;50.874;4.762;2023-04-03T15:43:21;5.33;;;2.10;;
19965;SDS011;10144;50.874;4.762;2023-04-03T15:45:48;6.87;;;2.53;;
19965;SDS011;10144;50.874;4.762;2023-04-03T15:48:14;5.17;;;2.43;;
19965;SDS011;10144;50.874;4.762;2023-04-03T15:50:40;8.73;;;2.03;;
19965;SDS011;10144;50.874;4.762;2023-04-03T15:53:07;5.93;;;2.43;;
19965;SDS011;10144;50.874;4.762;2023-04-03T15:55:34;7.07;;;2.30;;
19965;SDS011;10144;50.874;4.762;2023-04-03T15:58:00;10.70;;;3.27;;
19965;SDS011;10144;50.874;4.762;2023-04-03T16:00:27;4.93;;;2.00;;
19965;SDS011;10144;50.874;4.762;2023-04-03T16:03:01;6.03;;;1.93;;
19965;SDS011;10144;50.874;4.762;2023-04-03T16:05:31;7.93;;;2.50;;
19965;SDS011;10144;50.874;4.762;2023-04-03T16:07:57;5.93;;;1.97;;
19965;SDS011;10144;50.874;4.762;2023-04-03T16:10:25;6.00;;;2.50;;
19965;SDS011;10144;50.874;4.762;2023-04-03T16:12:51;7.17;;;2.63;;
19965;SDS011;10144;50.874;4.762;2023-04-03T16:15:17;5.60;;;2.47;;
19965;SDS011;10144;50.874;4.762;2023-04-03T16:17:42;7.53;;;2.50;;
19965;SDS011;10144;50.874;4.762;2023-04-03T16:20:08;9.37;;;2.57;;
19965;SDS011;10144;50.874;4.762;2023-04-03T16:22:36;4.07;;;1.97;;
19965;SDS011;10144;50.874;4.762;2023-04-03T16:25:03;5.77;;;1.80;;
19965;SDS011;10144;50.874;4.762;2023-04-03T16:27:30;5.60;;;2.00;;
19965;SDS011;10144;50.874;4.762;2023-04-03T16:29:56;5.57;;;2.10;;
19965;SDS011;10144;50.874;4.762;2023-04-03T16:32:23;8.20;;;2.10;;
19965;SDS011;10144;50.874;4.762;2023-04-03T16:34:52;5.17;;;1.77;;
19965;SDS011;10144;50.874;4.762;2023-04-03T16:37:19;8.57;;;2.43;;
19965;SDS011;10144;50.874;4.762;2023-04-03T16:39:45;3.60;;;1.73;;
19965;SDS011;10144;50.874;4.762;2023-04-03T16:42:10;6.53;;;2.27;;
19965;SDS011;10144;50.874;4.762;2023-04-03T16:44:36;9.03;;;3.60;;
19965;SDS011;10144;50.874;4.762;2023-04-03T16:47:02;6.97;;;3.10;;
19965;SDS011;10144;50.874;4.762;2023-04-03T16:49:28;10.27;;;4.07;;
19965;SDS011;10144;50.874;4.762;2023-04-03T16:52:03;8.00;;;3.50;;
19965;SDS011;10144;50.874;4.762;2023-04-03T16:54:30;11.50;;;3.23;;
19965;SDS011;10144;50.874;4.762;2023-04-03T16:56:56;7.23;;;2.53;;
19965;SDS011;10144;50.874;4.762;2023-04-03T16:59:23;5.80;;;2.50;;
19965;SDS011;10144;50.874;4.762;2023-04-03T17:01:49;5.60;;;2.70;;
19965;SDS011;10144;50.874;4.762;2023-04-03T17:04:15;6.23;;;2.43;;
19965;SDS011;10144;50.874;4.762;2023-04-03T17:06:41;6.00;;;2.10;;
19965;SDS011;10144;50.874;4.762;2023-04-03T17:09:07;5.43;;;2.07;;
19965;SDS011;10144;50.874;4.762;2023-04-03T17:11:34;9.57;;;2.80;;
19965;SDS011;10144;50.874;4.762;2023-04-03T17:14:01;5.57;;;1.90;;
19965;SDS011;10144;50.874;4.762;2023-04-03T17:16:27;5.37;;;1.80;;
19965;SDS011;10144;50.874;4.762;2023-04-03T17:18:53;5.27;;;2.00;;
19965;SDS011;10144;50.874;4.762;2023-04-03T17:21:20;4.57;;;1.80;;
19965;SDS011;10144;50.874;4.762;2023-04-03T17:23:47;7.30;;;2.10;;
19965;SDS011;10144;50.874;4.762;2023-04-03T17:26:20;5.00;;;2.03;;
19965;SDS011;10144;50.874;4.762;2023-04-03T17:31:15;7.67;;;2.13;;
19965;SDS011;10144;50.874;4.762;2023-04-03T17:33:40;5.47;;;1.87;;
19965;SDS011;10144;50.874;4.762;2023-04-03T17:36:06;5.70;;;2.10;;
19965;SDS011;10144;50.874;4.762;2023-04-03T17:38:35;5.40;;;2.00;;
19965;SDS011;10144;50.874;4.762;2023-04-03T17:43:31;5.83;;;1.80;;
19965;SDS011;10144;50.874;4.762;2023-04-03T17:46:00;6.63;;;2.20;;
19965;SDS011;10144;50.874;4.762;2023-04-03T17:48:32;3.67;;;1.70;;
19965;SDS011;10144;50.874;4.762;2023-04-03T17:51:02;3.40;;;1.57;;
19965;SDS011;10144;50.874;4.762;2023-04-03T17:53:30;4.37;;;1.73;;
19965;SDS011;10144;50.874;4.762;2023-04-03T17:55:55;7.47;;;3.10;;
19965;SDS011;10144;50.874;4.762;2023-04-03T17:58:21;5.77;;;1.90;;
19965;SDS011;10144;50.874;4.762;2023-04-03T18:00:47;4.33;;;1.73;;
19965;SDS011;10144;50.874;4.762;2023-04-03T18:03:12;5.43;;;2.43;;
19965;SDS011;10144;50.874;4.762;2023-04-03T18:05:40;5.37;;;2.30;;
19965;SDS011;10144;50.874;4.762;2023-04-03T18:08:06;7.03;;;3.30;;
19965;SDS011;10144;50.874;4.762;2023-04-03T18:10:34;8.20;;;2.83;;
19965;SDS011;10144;50.874;4.762;2023-04-03T18:13:01;11.37;;;4.40;;
19965;SDS011;10144;50.874;4.762;2023-04-03T18:15:28;8.17;;;2.37;;